Atwell, New York
Current Conditions -  °F | °C
As of 11:53 PM on Monday 26 Jan 2015 (Local Time) from KRME Reporting Station
Overcast Overcast  
Wind Chill: 16°   Ceiling: 7500
Heat Index: 16°   Visibility: 10mi
Dew Point:   Wind: 3mph
Humidity: 68%   Direction: 310°NW
Pressure: 29.93"   Gusts: NA
Location:  43.501°N, 75.1602°W
Report Text: KRME 270453Z AUTO 31003KT 10SM OVC075 M09/M14 A2993 RMK AO2 SLP142 T10891139 410671189
Loading
Personal Weather Stations






























Interactive Weather Map New forecast layout! Learn more

10-Day Weather Forecast

Advertisements
Track Severe Weather on mobile